Aérodrome :
LOGIN :

S'inscrire | Disclaimer

   EN    FR    IT 

 










Légende :    VFR   VFR Marginal   IFR   IFR Intensif   IFR Très Intensif
Visi : 
Plafond : 
>= 8 km
>= 3000ft
5 à 8 km
1000 à 3000 ft
1500m à 5 km
500 à 1000 ft
800 à 1500m
200 à 500 ft
< 800m
< 200 ft
Symboles :   Orages  Brouillard  Fortes neiges  Fortes précipitations  Vent > 20 kt
SIGMETs :   Divers  Orages  Givrage  Turbulence  Onde Orograph.  Cendres Volcan.






- Altitude de l'aérodrome : 335 ft
- Code IATA : BEG


LYBE - Belgrade Nikola Tesla

DERNIER METAR :
  • 171900Z 02003KT 8000 NSC 10/02 Q1020 NOSIG

METARs EXPIRÉS :
  • 171830Z 04003KT CAVOK 12/03 Q1020 NOSIG
  • 171800Z 04003KT CAVOK 12/03 Q1020 NOSIG
  • 171730Z 01004KT CAVOK 12/02 Q1020 NOSIG
  • 171700Z 01003KT CAVOK 13/02 Q1020 NOSIG
  • 171630Z 36003KT CAVOK 14/03 Q1020 NOSIG

TAF TAF LYBE
Valide du 17 à 18h jusqu'au 18 à 18h UTC


171700Z 1718/1818 20004KT CAVOK TX15/1813Z TN02/1806Z
BECMG 1808/1810 31012KT



MET'MAP, la Météo Aéronautique d'un coup d'oeil ! - Copyright ORBIFLY Décembre 2007 - Disclaimer

ORBIFLY MET'MAP TEAM :

Programmation & Développement : Alexandra Zaïnal
Sur une idée originale de : Baudouin d'Aumeries
Assistance à la programmation : Marc-Olivier Méhu
Soutien technique & logistique : Manuel Goepfert

Contact : metmap@orbifly.com




SOURCES & CREDITS :

   NOAA